createdAt,value
2018-06-25T00:00:49.237Z,929.27
2018-06-25T00:02:20.818Z,929.23
2018-06-25T00:03:52.382Z,929.25
2018-06-25T00:05:23.956Z,929.25
2018-06-25T00:06:55.528Z,929.20
2018-06-25T00:08:27.101Z,929.20
2018-06-25T00:09:58.673Z,929.28
2018-06-25T00:11:30.246Z,929.29
2018-06-25T00:13:02.371Z,929.29
2018-06-25T00:14:33.392Z,929.28
2018-06-25T00:16:04.967Z,929.30
2018-06-25T00:17:36.537Z,929.35
2018-06-25T00:19:08.110Z,929.38
2018-06-25T00:20:39.683Z,929.44
2018-06-25T00:22:11.256Z,929.44
2018-06-25T00:23:42.828Z,929.42
2018-06-25T00:25:14.401Z,929.45
2018-06-25T00:26:45.975Z,929.43
2018-06-25T00:28:17.548Z,929.42
2018-06-25T00:29:49.120Z,929.41
2018-06-25T00:31:20.994Z,929.41
2018-06-25T00:32:52.266Z,929.40
2018-06-25T00:34:23.842Z,929.40
2018-06-25T00:35:55.411Z,929.45
2018-06-25T00:37:26.984Z,929.46
2018-06-25T00:38:58.557Z,929.45
2018-06-25T00:40:30.130Z,929.47
2018-06-25T00:42:01.704Z,929.48
2018-06-25T00:43:33.276Z,929.47
2018-06-25T00:45:04.849Z,929.45
2018-06-25T00:46:36.422Z,929.43
2018-06-25T00:48:07.994Z,929.42
2018-06-25T00:49:39.668Z,929.49
2018-06-25T00:51:11.140Z,929.49
2018-06-25T00:52:42.712Z,929.50
2018-06-25T00:54:14.285Z,929.48
2018-06-25T00:55:45.857Z,929.50
2018-06-25T00:57:17.430Z,929.46
2018-06-25T00:58:49.002Z,929.53
2018-06-25T01:00:20.575Z,929.54
2018-06-25T01:01:52.297Z,929.54
2018-06-25T01:03:23.719Z,929.58
2018-06-25T01:04:55.291Z,929.59
2018-06-25T01:06:26.864Z,929.54
2018-06-25T01:07:58.537Z,929.57
2018-06-25T01:09:30.013Z,929.53
2018-06-25T01:11:01.584Z,929.59
2018-06-25T01:12:33.155Z,929.54
2018-06-25T01:14:04.727Z,929.53
2018-06-25T01:15:36.304Z,929.51
2018-06-25T01:17:07.872Z,929.48
2018-06-25T01:18:39.447Z,929.46
2018-06-25T01:20:11.018Z,929.48
2018-06-25T01:21:42.590Z,929.45
2018-06-25T01:23:14.163Z,929.46
2018-06-25T01:24:45.738Z,929.49
2018-06-25T01:26:17.508Z,929.44
2018-06-25T01:27:48.879Z,929.43
2018-06-25T01:29:20.452Z,929.44
2018-06-25T01:30:52.026Z,929.39
2018-06-25T01:32:23.598Z,929.44
2018-06-25T01:33:55.170Z,929.44
2018-06-25T01:35:26.744Z,929.44
2018-06-25T01:36:58.316Z,929.39
2018-06-25T01:38:30.043Z,929.41
2018-06-25T01:40:01.467Z,929.40
2018-06-25T01:41:33.038Z,929.36
2018-06-25T01:43:04.608Z,929.35
2018-06-25T01:44:36.281Z,929.35
2018-06-25T01:46:07.755Z,929.34
2018-06-25T01:47:39.327Z,929.34
2018-06-25T01:49:10.900Z,929.34
2018-06-25T01:50:42.472Z,929.36
2018-06-25T01:52:14.046Z,929.30
2018-06-25T01:53:45.619Z,929.30
2018-06-25T01:55:17.193Z,929.29
2018-06-25T01:56:48.865Z,929.25
2018-06-25T01:58:20.337Z,929.26
2018-06-25T01:59:51.912Z,929.27
2018-06-25T02:01:23.482Z,929.26
2018-06-25T02:02:55.155Z,929.25
2018-06-25T02:04:26.628Z,929.26
2018-06-25T02:05:58.201Z,929.20
2018-06-25T02:07:29.775Z,929.15
2018-06-25T02:09:01.496Z,929.13
2018-06-25T02:10:32.922Z,929.15
2018-06-25T02:12:04.490Z,929.11
2018-06-25T02:13:36.063Z,929.08
2018-06-25T02:15:07.635Z,929.07
2018-06-25T02:16:39.208Z,929.08
2018-06-25T02:18:10.778Z,929.04
2018-06-25T02:19:42.350Z,929.06
2018-06-25T02:21:14.023Z,929.04
2018-06-25T02:22:45.494Z,929.01
2018-06-25T02:24:17.066Z,929.06
2018-06-25T02:25:48.639Z,929.02
2018-06-25T02:27:20.310Z,929.01
2018-06-25T02:28:51.781Z,929.00
2018-06-25T02:30:23.352Z,928.97
2018-06-25T02:31:54.924Z,928.98
2018-06-25T02:33:26.496Z,928.97
2018-06-25T02:34:58.068Z,928.95
2018-06-25T02:36:29.639Z,928.94
2018-06-25T02:38:01.214Z,928.85
2018-06-25T02:39:33.084Z,928.84
2018-06-25T02:41:04.355Z,928.84
2018-06-25T02:42:35.931Z,928.82
2018-06-25T02:44:07.496Z,928.81
2018-06-25T02:45:39.069Z,928.80
2018-06-25T02:47:10.640Z,928.83
2018-06-25T02:48:42.211Z,928.82
2018-06-25T02:50:13.783Z,928.80
2018-06-25T02:51:45.354Z,928.80
2018-06-25T02:53:16.925Z,928.77
2018-06-25T02:54:48.499Z,928.80
2018-06-25T02:56:20.068Z,928.79
2018-06-25T02:57:51.740Z,928.71
2018-06-25T02:59:23.212Z,928.71
2018-06-25T03:00:54.784Z,928.74
2018-06-25T03:02:26.355Z,928.69
2018-06-25T03:03:58.095Z,928.66
2018-06-25T03:05:29.498Z,928.63
2018-06-25T03:07:01.069Z,928.63
2018-06-25T03:08:32.642Z,928.62
2018-06-25T03:10:04.315Z,928.65
2018-06-25T03:11:35.784Z,928.63
2018-06-25T03:13:07.356Z,928.61
2018-06-25T03:14:38.932Z,928.60
2018-06-25T03:16:10.599Z,928.60
2018-06-25T03:17:42.070Z,928.59
2018-06-25T03:19:13.642Z,928.59
2018-06-25T03:20:45.212Z,928.58
2018-06-25T03:22:16.784Z,928.61
2018-06-25T03:23:48.355Z,928.58
2018-06-25T03:25:19.926Z,928.59
2018-06-25T03:26:51.497Z,928.59
2018-06-25T03:28:23.168Z,928.52
2018-06-25T03:29:54.639Z,928.49
2018-06-25T03:31:26.212Z,928.50
2018-06-25T03:32:57.782Z,928.51
2018-06-25T03:34:29.656Z,928.47
2018-06-25T03:36:00.925Z,928.47
2018-06-25T03:37:32.496Z,928.49
2018-06-25T03:39:04.067Z,928.48
2018-06-25T03:40:35.738Z,928.47
2018-06-25T03:42:07.211Z,928.48
2018-06-25T03:43:38.781Z,928.49
2018-06-25T03:45:10.352Z,928.48
2018-06-25T03:46:41.923Z,928.50
2018-06-25T03:48:13.494Z,928.49
2018-06-25T03:49:45.066Z,928.47
2018-06-25T03:51:16.638Z,928.52
2018-06-25T03:52:48.308Z,928.52
2018-06-25T03:54:19.779Z,928.53
2018-06-25T03:55:51.351Z,928.47
2018-06-25T03:57:22.921Z,928.48
2018-06-25T03:58:54.593Z,928.50
2018-06-25T04:00:26.064Z,928.49
2018-06-25T04:01:57.635Z,928.43
2018-06-25T04:03:29.207Z,928.39
2018-06-25T04:05:00.926Z,928.42
2018-06-25T04:06:32.348Z,928.43
2018-06-25T04:08:03.919Z,928.41
2018-06-25T04:09:35.495Z,928.37
2018-06-25T04:11:07.311Z,928.30
2018-06-25T04:12:38.631Z,928.31
2018-06-25T04:14:10.202Z,928.31
2018-06-25T04:15:41.773Z,928.32
2018-06-25T04:17:13.345Z,928.28
2018-06-25T04:18:44.915Z,928.24
2018-06-25T04:20:16.486Z,928.23
2018-06-25T04:21:48.056Z,928.22
2018-06-25T04:23:19.632Z,928.21
2018-06-25T04:24:51.198Z,928.21
2018-06-25T04:26:22.769Z,928.12
2018-06-25T04:27:54.339Z,928.14
2018-06-25T04:29:26.111Z,928.15
2018-06-25T04:30:57.481Z,928.15
2018-06-25T04:32:29.055Z,928.11
2018-06-25T04:34:00.623Z,928.05
2018-06-25T04:35:32.193Z,928.10
2018-06-25T04:37:03.764Z,928.13
2018-06-25T04:38:35.334Z,928.08
2018-06-25T04:40:06.905Z,928.10
2018-06-25T04:41:38.480Z,928.09
2018-06-25T04:43:10.047Z,928.09
2018-06-25T04:44:41.618Z,928.12
2018-06-25T04:46:13.190Z,928.02
2018-06-25T04:47:44.860Z,928.06
2018-06-25T04:49:16.328Z,928.01
2018-06-25T04:50:47.901Z,928.01
2018-06-25T04:52:19.472Z,928.00
2018-06-25T04:53:51.049Z,927.98
2018-06-25T04:55:22.612Z,927.96
2018-06-25T04:56:56.938Z,927.98
2018-06-25T04:58:25.753Z,927.91
2018-06-25T04:59:57.426Z,927.91
2018-06-25T05:01:28.894Z,927.85
2018-06-25T05:03:00.465Z,927.85
2018-06-25T05:04:32.036Z,927.80
2018-06-25T05:06:03.707Z,927.83
2018-06-25T05:07:35.177Z,927.82
2018-06-25T05:09:06.749Z,927.77
2018-06-25T05:10:38.319Z,927.75
2018-06-25T05:12:10.040Z,927.77
2018-06-25T05:13:41.460Z,927.72
2018-06-25T05:15:13.031Z,927.72
2018-06-25T05:16:44.601Z,927.72
2018-06-25T05:18:16.171Z,927.71
2018-06-25T05:19:47.743Z,927.70
2018-06-25T05:21:19.312Z,927.66
2018-06-25T05:22:50.883Z,927.70
2018-06-25T05:24:22.554Z,927.68
2018-06-25T05:25:54.025Z,927.71
2018-06-25T05:27:25.594Z,927.71
2018-06-25T05:28:57.165Z,927.70
2018-06-25T05:30:28.835Z,927.75
2018-06-25T05:32:00.305Z,927.79
2018-06-25T05:33:31.876Z,927.77
2018-06-25T05:35:03.447Z,927.77
2018-06-25T05:36:35.018Z,927.79
2018-06-25T05:38:06.588Z,927.78
2018-06-25T05:39:38.198Z,927.82
2018-06-25T05:41:09.729Z,927.75
2018-06-25T05:42:41.549Z,927.80
2018-06-25T05:44:12.869Z,927.70
2018-06-25T05:45:44.440Z,927.71
2018-06-25T05:47:16.011Z,927.71
2018-06-25T05:48:47.584Z,927.76
2018-06-25T05:50:19.151Z,927.74
2018-06-25T05:51:50.725Z,927.74
2018-06-25T05:53:22.292Z,927.76
2018-06-25T05:54:53.863Z,927.74
2018-06-25T05:56:25.433Z,927.73
2018-06-25T05:57:57.003Z,927.70
2018-06-25T05:59:28.574Z,927.72
2018-06-25T06:01:00.345Z,927.72
2018-06-25T06:02:31.715Z,927.71
2018-06-25T06:04:03.285Z,927.73
2018-06-25T06:05:34.856Z,927.69
2018-06-25T06:07:06.426Z,927.66
2018-06-25T06:08:37.996Z,927.69
2018-06-25T06:10:09.567Z,927.64
2018-06-25T06:11:41.137Z,927.64
2018-06-25T06:13:12.808Z,927.64
2018-06-25T06:14:44.285Z,927.69
2018-06-25T06:16:15.851Z,927.63
2018-06-25T06:17:47.420Z,927.67
2018-06-25T06:19:19.090Z,927.67
2018-06-25T06:20:50.560Z,927.65
2018-06-25T06:22:22.130Z,927.66
2018-06-25T06:23:53.700Z,927.68
2018-06-25T06:25:25.270Z,927.67
2018-06-25T06:26:56.841Z,927.64
2018-06-25T06:28:28.413Z,927.60
2018-06-25T06:29:59.982Z,927.64
2018-06-25T06:31:31.652Z,927.60
2018-06-25T06:33:03.123Z,927.63
2018-06-25T06:34:34.692Z,927.62
2018-06-25T06:36:06.263Z,927.63
2018-06-25T06:37:37.933Z,927.61
2018-06-25T06:39:09.404Z,927.55
2018-06-25T06:40:40.974Z,927.57
2018-06-25T06:42:12.544Z,927.57
2018-06-25T06:43:44.214Z,927.61
2018-06-25T06:45:15.684Z,927.59
2018-06-25T06:46:47.255Z,927.58
2018-06-25T06:48:18.825Z,927.52
2018-06-25T06:49:50.545Z,927.55
2018-06-25T06:51:22.017Z,927.56
2018-06-25T06:52:53.535Z,927.56
2018-06-25T06:54:25.124Z,927.57
2018-06-25T06:55:56.776Z,927.60
2018-06-25T06:57:28.268Z,927.55
2018-06-25T06:58:59.816Z,927.57
2018-06-25T07:00:31.386Z,927.51
2018-06-25T07:02:03.056Z,927.54
2018-06-25T07:03:34.527Z,927.55
2018-06-25T07:05:06.101Z,927.51
2018-06-25T07:06:37.667Z,927.52
2018-06-25T07:08:09.387Z,927.53
2018-06-25T07:09:40.807Z,927.50
2018-06-25T07:11:12.377Z,927.48
2018-06-25T07:12:43.957Z,927.49
2018-06-25T07:14:15.668Z,927.46
2018-06-25T07:15:47.088Z,927.51
2018-06-25T07:17:18.658Z,927.48
2018-06-25T07:18:50.228Z,927.47
2018-06-25T07:20:21.798Z,927.44
2018-06-25T07:21:53.368Z,927.45
2018-06-25T07:23:24.938Z,927.47
2018-06-25T07:24:56.509Z,927.44
2018-06-25T07:26:28.079Z,927.46
2018-06-25T07:27:59.649Z,927.48
2018-06-25T07:29:31.224Z,927.48
2018-06-25T07:31:02.791Z,927.46
2018-06-25T07:32:34.610Z,927.49
2018-06-25T07:34:05.930Z,927.50
2018-06-25T07:35:37.500Z,927.49
2018-06-25T07:37:09.070Z,927.45
2018-06-25T07:38:40.791Z,927.45
2018-06-25T07:40:12.211Z,927.42
2018-06-25T07:41:43.781Z,927.39
2018-06-25T07:43:15.351Z,927.40
2018-06-25T07:44:47.021Z,927.37
2018-06-25T07:46:18.492Z,927.37
2018-06-25T07:47:50.062Z,927.37
2018-06-25T07:49:21.633Z,927.37
2018-06-25T07:50:53.303Z,927.41
2018-06-25T07:52:24.776Z,927.39
2018-06-25T07:53:56.343Z,927.39
2018-06-25T07:55:27.914Z,927.37
2018-06-25T07:56:59.484Z,927.37
2018-06-25T07:58:31.055Z,927.37
2018-06-25T08:00:02.625Z,927.40
2018-06-25T08:01:34.196Z,927.43
2018-06-25T08:03:05.865Z,927.41
2018-06-25T08:04:37.335Z,927.39
2018-06-25T08:06:08.909Z,927.46
2018-06-25T08:07:40.475Z,927.50
2018-06-25T08:09:12.347Z,927.50
2018-06-25T08:10:43.616Z,927.51
2018-06-25T08:12:15.187Z,927.53
2018-06-25T08:13:46.755Z,927.59
2018-06-25T08:15:18.426Z,927.57
2018-06-25T08:16:49.903Z,927.62
2018-06-25T08:18:21.470Z,927.60
2018-06-25T08:19:53.038Z,927.62
2018-06-25T08:21:24.606Z,927.63
2018-06-25T08:22:56.175Z,927.65
2018-06-25T08:24:27.747Z,927.68
2018-06-25T08:25:59.316Z,927.71
2018-06-25T08:27:30.986Z,927.65
2018-06-25T08:29:02.456Z,927.73
2018-06-25T08:30:34.026Z,927.72
2018-06-25T08:32:05.597Z,927.73
2018-06-25T08:33:37.266Z,927.71
2018-06-25T08:35:08.737Z,927.74
2018-06-25T08:36:40.310Z,927.76
2018-06-25T08:38:11.877Z,927.80
2018-06-25T08:39:43.447Z,927.78
2018-06-25T08:41:15.018Z,927.78
2018-06-25T08:42:46.600Z,927.76
2018-06-25T08:44:18.158Z,927.77
2018-06-25T08:45:49.853Z,927.75
2018-06-25T08:47:21.299Z,927.82
2018-06-25T08:48:52.868Z,927.81
2018-06-25T08:50:24.438Z,927.87
2018-06-25T08:51:56.020Z,927.87
2018-06-25T08:53:27.579Z,927.90
2018-06-25T08:54:59.157Z,927.86
2018-06-25T08:56:30.718Z,927.91
2018-06-25T08:58:02.288Z,927.92
2018-06-25T08:59:33.859Z,927.97
2018-06-25T09:01:05.431Z,927.91
2018-06-25T09:02:36.998Z,927.93
2018-06-25T09:04:08.671Z,927.94
2018-06-25T09:05:40.139Z,927.98
2018-06-25T09:07:11.709Z,927.97
2018-06-25T09:08:43.283Z,927.99
2018-06-25T09:10:15.000Z,927.99
2018-06-25T09:11:46.419Z,927.99
2018-06-25T09:13:17.989Z,928.01
2018-06-25T09:14:49.559Z,928.05
2018-06-25T09:16:21.136Z,928.02
2018-06-25T09:17:52.700Z,927.99
2018-06-25T09:19:24.270Z,928.02
2018-06-25T09:20:55.840Z,928.01
2018-06-25T09:22:27.510Z,928.04
2018-06-25T09:23:58.979Z,928.06
2018-06-25T09:25:30.550Z,928.07
2018-06-25T09:27:02.125Z,928.07
2018-06-25T09:28:33.689Z,928.08
2018-06-25T09:30:05.264Z,928.07
2018-06-25T09:31:36.829Z,928.09
2018-06-25T09:33:08.399Z,928.09
2018-06-25T09:34:40.119Z,928.08
2018-06-25T09:36:11.541Z,928.12
2018-06-25T09:37:43.111Z,928.13
2018-06-25T09:39:14.679Z,928.11
2018-06-25T09:40:46.352Z,928.13
2018-06-25T09:42:17.820Z,928.13
2018-06-25T09:43:49.389Z,928.17
2018-06-25T09:45:20.959Z,928.14
2018-06-25T09:46:52.569Z,928.17
2018-06-25T09:48:24.103Z,928.19
2018-06-25T09:49:55.668Z,928.19
2018-06-25T09:51:27.267Z,928.19
2018-06-25T09:52:58.810Z,928.17
2018-06-25T09:54:30.377Z,928.19
2018-06-25T09:56:01.951Z,928.22
2018-06-25T09:57:33.518Z,928.19
2018-06-25T09:59:05.187Z,928.22
2018-06-25T10:00:36.658Z,928.26
2018-06-25T10:02:08.227Z,928.25
2018-06-25T10:03:39.797Z,928.24
2018-06-25T10:05:11.367Z,928.23
2018-06-25T10:06:42.947Z,928.20
2018-06-25T10:08:14.508Z,928.27
2018-06-25T10:09:46.078Z,928.26
2018-06-25T10:11:17.647Z,928.21
2018-06-25T10:12:49.253Z,928.22
2018-06-25T10:14:20.789Z,928.24
2018-06-25T10:15:52.362Z,928.23
2018-06-25T10:17:24.031Z,928.21
2018-06-25T10:18:55.500Z,928.28
2018-06-25T10:20:27.071Z,928.28
2018-06-25T10:21:58.642Z,928.31
2018-06-25T10:23:30.215Z,928.29
2018-06-25T10:25:01.783Z,928.32
2018-06-25T10:26:33.353Z,928.37
2018-06-25T10:28:04.925Z,928.35
2018-06-25T10:29:36.495Z,928.38
2018-06-25T10:31:08.067Z,928.38
2018-06-25T10:34:11.411Z,928.49
2018-06-25T10:35:43.185Z,928.50
2018-06-25T10:37:14.558Z,928.53
2018-06-25T10:38:45.923Z,928.53
2018-06-25T10:40:17.496Z,928.57
2018-06-25T10:41:49.698Z,928.61
2018-06-25T10:43:21.164Z,928.60
2018-06-25T10:44:52.213Z,928.69
2018-06-25T10:46:23.863Z,928.66
2018-06-25T10:47:55.893Z,928.74
2018-06-25T10:49:27.240Z,928.69
2018-06-25T10:50:58.840Z,928.71
2018-06-25T10:52:30.386Z,928.76
2018-06-25T10:58:36.482Z,928.76
2018-06-25T11:00:08.440Z,928.78
2018-06-25T11:01:40.678Z,928.79
2018-06-25T11:04:42.889Z,928.87
2018-06-25T11:06:14.467Z,928.86
2018-06-25T11:07:46.068Z,928.84
2018-06-25T11:09:17.725Z,928.85
2018-06-25T11:10:49.306Z,928.83
2018-06-25T11:12:20.582Z,928.84
2018-06-25T11:13:52.685Z,928.86
2018-06-25T11:15:23.731Z,928.87
2018-06-25T11:16:55.559Z,928.91
2018-06-25T11:18:26.901Z,928.95
2018-06-25T11:19:58.670Z,928.92
2018-06-25T11:21:30.046Z,928.93
2018-06-25T11:23:01.836Z,928.93
2018-06-25T11:24:33.204Z,928.93
2018-06-25T11:26:04.783Z,928.94
2018-06-25T11:27:36.455Z,928.97
2018-06-25T11:29:07.942Z,929.01
2018-06-25T11:30:39.521Z,929.02
2018-06-25T11:32:11.405Z,929.01
2018-06-25T11:33:42.680Z,929.06
2018-06-25T11:36:46.475Z,929.05
2018-06-25T11:38:17.420Z,929.07
2018-06-25T11:39:49.288Z,929.09
2018-06-25T11:41:20.579Z,929.08
2018-06-25T11:42:52.160Z,929.10
2018-06-25T11:44:23.738Z,929.11
2018-06-25T11:45:55.354Z,929.13
2018-06-25T11:47:26.906Z,929.16
2018-06-25T11:50:30.057Z,929.21
2018-06-25T11:52:01.649Z,929.21
2018-06-25T11:53:33.237Z,929.24
2018-06-25T11:58:08.061Z,929.32
2018-06-25T11:59:39.537Z,929.31
2018-06-25T12:01:11.323Z,929.28
2018-06-25T12:02:42.877Z,929.27
2018-06-25T12:05:45.858Z,929.34
2018-06-25T12:07:17.642Z,929.41
2018-06-25T12:08:49.235Z,929.41
2018-06-25T12:10:20.599Z,929.40
2018-06-25T12:11:53.320Z,929.41
2018-06-25T12:13:23.768Z,929.45
2018-06-25T12:14:55.341Z,929.40
2018-06-25T12:17:58.664Z,929.34
2018-06-25T12:19:30.413Z,929.32
2018-06-25T12:21:01.665Z,929.36
2018-06-25T12:25:36.916Z,929.37
2018-06-25T12:27:07.996Z,929.38
2018-06-25T12:28:39.874Z,929.41
2018-06-25T12:30:11.210Z,929.36
2018-06-25T12:31:42.937Z,929.38
2018-06-25T12:33:14.527Z,929.42
2018-06-25T12:34:46.613Z,929.47
2018-06-25T12:36:17.717Z,929.47
2018-06-25T12:37:49.214Z,929.53
2018-06-25T12:39:21.149Z,929.51
2018-06-25T12:40:52.223Z,929.54
2018-06-25T12:42:23.805Z,929.52
2018-06-25T12:43:55.387Z,929.51
2018-06-25T12:45:27.582Z,929.50
2018-06-25T12:46:58.551Z,929.52
2018-06-25T12:48:30.196Z,929.51
2018-06-25T12:50:02.023Z,929.46
2018-06-25T12:51:33.364Z,929.50
2018-06-25T12:53:04.882Z,929.52
2018-06-25T12:54:36.468Z,929.52
2018-06-25T12:56:08.961Z,929.46
2018-06-25T12:57:40.228Z,929.47
2018-06-25T12:59:11.832Z,929.49
2018-06-25T13:00:43.007Z,929.44
2018-06-25T13:02:14.579Z,929.49
2018-06-25T13:03:45.969Z,929.48
2018-06-25T13:05:18.241Z,929.55
2018-06-25T13:06:50.022Z,929.52
2018-06-25T13:08:21.009Z,929.54
2018-06-25T13:15:59.427Z,929.50
2018-06-25T13:17:30.575Z,929.50
2018-06-25T13:19:01.787Z,929.52
2018-06-25T13:20:33.641Z,929.55
2018-06-25T13:22:05.211Z,929.51
2018-06-25T13:23:36.736Z,929.48
2018-06-25T13:25:08.418Z,929.40
2018-06-25T13:26:39.905Z,929.27
2018-06-25T13:29:43.400Z,929.28
2018-06-25T13:31:14.604Z,929.27
2018-06-25T13:34:17.620Z,929.43
2018-06-25T13:35:49.771Z,929.40
2018-06-25T13:38:52.367Z,929.40
2018-06-25T13:40:24.287Z,929.40
2018-06-25T13:41:55.530Z,929.34
2018-06-25T13:43:27.114Z,929.32
2018-06-25T13:44:58.796Z,929.35
2018-06-25T13:48:01.862Z,929.24
2018-06-25T13:49:33.687Z,929.24
2018-06-25T13:51:05.637Z,929.27
2018-06-25T13:54:08.644Z,929.23
2018-06-25T13:55:40.330Z,929.22
2018-06-25T13:57:11.875Z,929.15
2018-06-25T13:58:43.135Z,929.21
2018-06-25T14:00:14.813Z,929.12
2018-06-25T14:01:46.223Z,929.17
2018-06-25T14:03:17.936Z,929.21
2018-06-25T14:04:49.502Z,929.20
2018-06-25T14:06:20.915Z,929.17
2018-06-25T14:07:52.449Z,929.15
2018-06-25T14:10:55.729Z,929.01
2018-06-25T14:12:28.107Z,928.97
2018-06-25T14:15:30.368Z,928.94
2018-06-25T14:17:02.015Z,929.00
2018-06-25T14:18:33.749Z,928.95
2018-06-25T14:20:05.321Z,928.97
2018-06-25T14:21:36.705Z,928.94
2018-06-25T14:23:08.300Z,928.94
2018-06-25T14:24:40.024Z,928.86
2018-06-25T14:26:11.453Z,928.86
2018-06-25T14:27:43.076Z,928.87
2018-06-25T14:29:15.535Z,928.81
2018-06-25T14:30:46.456Z,928.78
2018-06-25T14:36:52.555Z,928.82
2018-06-25T14:38:24.329Z,928.75
2018-06-25T14:39:55.714Z,928.67
2018-06-25T14:41:27.295Z,928.68
2018-06-25T14:44:30.564Z,928.61
2018-06-25T14:46:02.055Z,928.55
2018-06-25T14:49:05.218Z,928.58
2018-06-25T14:50:37.305Z,928.58
2018-06-25T14:52:08.386Z,928.53
2018-06-25T14:55:11.558Z,928.59
2018-06-25T14:56:43.140Z,928.54
2018-06-25T14:58:14.737Z,928.59
2018-06-25T14:59:46.309Z,928.53
2018-06-25T15:01:18.425Z,928.68
2018-06-25T15:02:49.478Z,928.73
2018-06-25T15:04:21.061Z,928.80
2018-06-25T15:05:53.061Z,928.92
2018-06-25T15:08:55.959Z,929.06
2018-06-25T15:10:27.504Z,928.90
2018-06-25T15:11:59.292Z,928.71
2018-06-25T15:16:33.990Z,928.59
2018-06-25T15:18:05.341Z,928.51
2018-06-25T15:19:37.115Z,928.50
2018-06-25T15:21:08.797Z,928.59
2018-06-25T15:24:12.699Z,928.37
2018-06-25T15:25:43.448Z,928.41
2018-06-25T15:28:46.416Z,928.22
2018-06-25T15:30:18.051Z,928.27
2018-06-25T15:31:49.594Z,928.23
2018-06-25T15:33:21.171Z,928.19
2018-06-25T15:34:52.756Z,928.15
2018-06-25T15:36:24.687Z,928.11
2018-06-25T15:37:55.982Z,928.09
2018-06-25T15:39:27.813Z,928.03
2018-06-25T15:40:59.095Z,928.06
2018-06-25T15:42:30.806Z,927.97
2018-06-25T15:44:02.571Z,927.89
2018-06-25T15:45:33.851Z,927.75
2018-06-25T15:47:06.170Z,927.72
2018-06-25T15:50:08.759Z,927.59
2018-06-25T15:51:40.396Z,927.56
2018-06-25T15:53:11.980Z,927.46
2018-06-25T15:54:43.360Z,927.47
2018-06-25T15:56:15.478Z,927.53
2018-06-25T15:57:46.530Z,927.47
2018-06-25T15:59:18.115Z,927.36
2018-06-25T16:03:53.479Z,927.32
2018-06-25T16:05:24.759Z,927.39
2018-06-25T16:06:56.167Z,927.22
2018-06-25T16:09:59.213Z,927.07
2018-06-25T16:11:30.797Z,927.16
2018-06-25T16:13:02.382Z,927.16
2018-06-25T16:14:33.967Z,927.15
2018-06-25T16:16:05.552Z,927.06
2018-06-25T16:17:37.444Z,927.05
2018-06-25T16:19:08.789Z,926.99
2018-06-25T16:20:40.310Z,927.07
2018-06-25T16:22:11.993Z,927.01
2018-06-25T16:23:43.479Z,926.95
2018-06-25T16:25:15.063Z,927.03
2018-06-25T16:28:18.232Z,926.95
2018-06-25T16:29:49.956Z,926.95
2018-06-25T16:31:21.405Z,926.90
2018-06-25T16:32:53.147Z,926.90
2018-06-25T16:34:24.674Z,926.88
2018-06-25T16:35:56.157Z,926.91
2018-06-25T16:38:59.631Z,926.77
2018-06-25T16:42:02.595Z,926.71
2018-06-25T16:43:34.281Z,926.78
2018-06-25T16:45:05.668Z,926.69
2018-06-25T16:46:37.249Z,926.70
2018-06-25T16:48:08.985Z,926.67
2018-06-25T16:49:40.725Z,926.62
2018-06-25T16:51:12.307Z,926.66
2018-06-25T16:52:43.589Z,926.63
2018-06-25T16:54:15.199Z,926.56
2018-06-25T16:55:46.756Z,926.59
2018-06-25T16:57:18.545Z,926.59
2018-06-25T16:58:50.258Z,926.49
2018-06-25T17:00:21.825Z,926.39
2018-06-25T17:01:53.098Z,926.46
2018-06-25T17:03:24.680Z,926.50
2018-06-25T17:04:56.263Z,926.42
2018-06-25T17:06:27.898Z,926.45
2018-06-25T17:07:59.635Z,926.50
2018-06-25T17:09:31.300Z,926.40
2018-06-25T17:11:02.601Z,926.44
2018-06-25T17:14:06.304Z,926.42
2018-06-25T17:17:09.345Z,926.30
2018-06-25T17:18:41.086Z,926.47
2018-06-25T17:20:12.209Z,926.38
2018-06-25T17:21:43.704Z,926.36
2018-06-25T17:23:15.296Z,926.34
2018-06-25T17:24:46.882Z,926.40
2018-06-25T17:26:19.549Z,926.39
2018-06-25T17:27:50.234Z,926.34
2018-06-25T17:30:53.203Z,926.36
2018-06-25T17:32:24.785Z,926.24
2018-06-25T17:33:56.367Z,926.21
2018-06-25T17:36:59.536Z,926.21
2018-06-25T17:38:31.223Z,926.15
2018-06-25T17:41:34.867Z,926.23
2018-06-25T17:43:05.872Z,926.17
2018-06-25T17:44:38.024Z,926.24
2018-06-25T17:46:09.047Z,926.08
2018-06-25T17:47:40.624Z,926.12
2018-06-25T17:49:12.218Z,926.08
2018-06-25T17:52:15.910Z,926.10
2018-06-25T17:53:46.959Z,926.13
2018-06-25T17:56:50.862Z,926.09
2018-06-25T17:58:21.813Z,926.06
2018-06-25T17:59:53.305Z,926.10
2018-06-25T18:01:24.939Z,926.09
2018-06-25T18:02:56.635Z,925.99
2018-06-25T18:05:59.641Z,926.06
2018-06-25T18:07:31.719Z,926.09
2018-06-25T18:09:02.796Z,926.08
2018-06-25T18:10:34.473Z,926.18
2018-06-25T18:12:05.977Z,926.10
2018-06-25T18:13:39.017Z,926.05
2018-06-25T18:15:09.129Z,926.05
2018-06-25T18:16:40.712Z,925.94
2018-06-25T18:18:12.745Z,926.03
2018-06-25T18:19:43.878Z,926.06
2018-06-25T18:21:15.461Z,926.12
2018-06-25T18:22:47.044Z,926.17
2018-06-25T18:25:50.211Z,926.10
2018-06-25T18:27:21.795Z,926.06
2018-06-25T18:28:53.393Z,926.04
2018-06-25T18:30:24.960Z,926.14
2018-06-25T18:31:56.542Z,926.01
2018-06-25T18:33:28.131Z,925.99
2018-06-25T18:36:31.825Z,926.03
2018-06-25T18:38:02.974Z,925.98
2018-06-25T18:39:34.659Z,925.98
2018-06-25T18:41:06.255Z,925.94
2018-06-25T18:44:09.407Z,925.91
2018-06-25T18:45:40.787Z,925.96
2018-06-25T18:47:12.388Z,925.93
2018-06-25T18:48:44.550Z,925.88
2018-06-25T18:50:16.512Z,925.81
2018-06-25T18:53:18.706Z,925.87
2018-06-25T18:56:22.699Z,925.81
2018-06-25T18:57:53.445Z,925.84
2018-06-25T19:00:56.610Z,925.77
2018-06-25T19:02:28.726Z,925.97
2018-06-25T19:03:59.774Z,925.87
2018-06-25T19:05:31.357Z,925.83
2018-06-25T19:08:34.520Z,925.82
2018-06-25T19:10:06.100Z,925.83
2018-06-25T19:11:37.684Z,925.72
2018-06-25T19:13:09.263Z,925.85
2018-06-25T19:14:40.951Z,925.90
2018-06-25T19:16:12.427Z,925.84
2018-06-25T19:17:44.029Z,925.81
2018-06-25T19:19:15.793Z,925.81
2018-06-25T19:20:47.171Z,925.84
2018-06-25T19:22:18.752Z,925.89
2018-06-25T19:23:50.337Z,925.87
2018-06-25T19:25:21.922Z,925.81
2018-06-25T19:26:53.669Z,925.78
2018-06-25T19:28:25.078Z,925.84
2018-06-25T19:31:28.239Z,925.78
2018-06-25T19:33:00.503Z,925.80
2018-06-25T19:34:31.400Z,925.77
2018-06-25T19:36:04.122Z,925.78
2018-06-25T19:37:35.070Z,925.81
2018-06-25T19:39:06.146Z,925.80
2018-06-25T19:40:37.721Z,925.86
2018-06-25T19:42:09.302Z,925.90
2018-06-25T19:43:40.940Z,925.89
2018-06-25T19:46:44.141Z,925.83
2018-06-25T19:49:47.205Z,925.82
2018-06-25T19:51:19.315Z,925.87
2018-06-25T19:52:50.662Z,925.88
2018-06-25T19:54:22.145Z,925.93
2018-06-25T19:57:25.101Z,925.92
2018-06-25T19:58:56.734Z,925.93
2018-06-25T20:00:28.262Z,925.91
2018-06-25T20:02:00.375Z,925.94
2018-06-25T20:03:31.496Z,925.91
2018-06-25T20:05:03.543Z,925.83
2018-06-25T20:06:34.778Z,925.93
2018-06-25T20:08:06.154Z,925.91
2018-06-25T20:12:40.991Z,925.90
2018-06-25T20:14:12.584Z,925.88
2018-06-25T20:15:44.099Z,925.89
2018-06-25T20:18:47.445Z,925.88
2018-06-25T20:20:18.783Z,925.89
2018-06-25T20:21:50.819Z,925.85
2018-06-25T20:23:22.345Z,925.97
2018-06-25T20:24:53.983Z,925.92
2018-06-25T20:26:25.731Z,925.91
2018-06-25T20:27:56.969Z,925.90
2018-06-25T20:29:28.589Z,925.91
2018-06-25T20:31:00.133Z,925.85
2018-06-25T20:32:31.610Z,925.92
2018-06-25T20:34:02.985Z,925.91
2018-06-25T20:35:34.565Z,925.91
2018-06-25T20:37:06.140Z,925.87
2018-06-25T20:38:37.717Z,925.86
2018-06-25T20:40:09.294Z,925.87